createdAt,value
2022-12-11T00:00:09.939Z,94.20
2022-12-11T00:02:37.663Z,94.20
2022-12-11T00:05:06.022Z,94.20
2022-12-11T00:07:33.882Z,94.10
2022-12-11T00:10:01.736Z,94.00
2022-12-11T00:12:30.958Z,93.90
2022-12-11T00:14:58.705Z,94.10
2022-12-11T00:17:27.754Z,94.20
2022-12-11T00:19:55.474Z,94.20
2022-12-11T00:22:23.172Z,94.50
2022-12-11T00:24:50.908Z,94.30
2022-12-11T00:27:18.575Z,94.20
2022-12-11T00:29:46.435Z,94.00
2022-12-11T00:32:14.239Z,94.00
2022-12-11T00:34:43.280Z,94.00
2022-12-11T00:37:11.149Z,93.80
2022-12-11T00:39:39.676Z,93.80
2022-12-11T00:42:08.694Z,93.80
2022-12-11T00:44:37.170Z,93.80
2022-12-11T00:47:05.000Z,93.80
2022-12-11T00:49:32.756Z,93.80
2022-12-11T00:52:01.751Z,93.80
2022-12-11T00:54:29.444Z,93.80
2022-12-11T00:56:57.307Z,93.80
2022-12-11T00:59:25.248Z,93.80
2022-12-11T01:01:52.906Z,93.80
2022-12-11T01:04:20.687Z,93.70
2022-12-11T01:06:48.347Z,93.70
2022-12-11T01:09:31.332Z,93.50
2022-12-11T01:11:59.038Z,93.50
2022-12-11T01:14:27.835Z,93.60
2022-12-11T01:16:55.537Z,93.50
2022-12-11T01:19:23.257Z,93.70
2022-12-11T01:21:50.994Z,93.70
2022-12-11T01:24:19.982Z,93.50
2022-12-11T01:26:47.739Z,93.40
2022-12-11T01:29:15.429Z,93.30
2022-12-11T01:31:43.145Z,93.30
2022-12-11T01:34:10.956Z,93.30
2022-12-11T01:36:38.698Z,92.90
2022-12-11T01:39:06.526Z,92.70
2022-12-11T01:41:35.536Z,92.50
2022-12-11T01:44:06.043Z,92.50
2022-12-11T01:46:35.682Z,92.40
2022-12-11T01:49:05.231Z,92.40
2022-12-11T01:51:36.726Z,92.20
2022-12-11T01:54:09.122Z,92.10
2022-12-11T01:56:42.049Z,92.10
2022-12-11T01:59:10.899Z,92.10
2022-12-11T02:01:43.864Z,92.10
2022-12-11T02:04:16.831Z,92.10
2022-12-11T02:06:47.630Z,91.90
2022-12-11T02:09:18.127Z,91.50
2022-12-11T02:11:55.320Z,91.40
2022-12-11T02:14:31.121Z,91.50
2022-12-11T02:17:04.868Z,91.40
2022-12-11T02:19:48.991Z,91.00
2022-12-11T02:22:28.112Z,90.80
2022-12-11T02:25:11.186Z,90.80
2022-12-11T02:27:45.763Z,90.90
2022-12-11T02:30:17.055Z,90.80
2022-12-11T02:32:48.718Z,90.80
2022-12-11T02:35:20.524Z,90.80
2022-12-11T02:37:51.527Z,90.80
2022-12-11T02:40:23.820Z,90.80
2022-12-11T02:42:53.011Z,90.80
2022-12-11T02:45:23.497Z,91.10
2022-12-11T02:47:52.211Z,90.90
2022-12-11T02:50:23.357Z,90.80
2022-12-11T02:52:55.669Z,90.80
2022-12-11T02:55:24.472Z,90.70
2022-12-11T02:57:58.936Z,90.70
2022-12-11T03:00:28.043Z,91.00
2022-12-11T03:02:55.799Z,90.90
2022-12-11T03:05:23.534Z,91.10
2022-12-11T03:07:51.353Z,91.00
2022-12-11T03:10:20.681Z,91.20
2022-12-11T03:12:53.653Z,91.10
2022-12-11T03:15:24.336Z,91.10
2022-12-11T03:18:02.493Z,91.10
2022-12-11T03:20:37.924Z,91.20
2022-12-11T03:23:14.612Z,91.20
2022-12-11T03:25:52.683Z,91.00
2022-12-11T03:28:25.397Z,91.10
2022-12-11T03:30:55.046Z,91.10
2022-12-11T03:33:29.235Z,91.20
2022-12-11T03:36:01.796Z,91.00
2022-12-11T03:38:35.277Z,91.20
2022-12-11T03:41:05.151Z,91.20
2022-12-11T03:43:34.931Z,91.00
2022-12-11T03:46:02.918Z,91.00
2022-12-11T03:48:36.908Z,91.00
2022-12-11T03:51:07.922Z,90.80
2022-12-11T03:53:37.345Z,90.90
2022-12-11T03:56:06.953Z,91.00
2022-12-11T03:58:34.694Z,91.00
2022-12-11T04:01:02.800Z,91.00
2022-12-11T04:03:31.908Z,91.10
2022-12-11T04:05:59.596Z,90.90
2022-12-11T04:08:27.344Z,91.40
2022-12-11T04:11:09.139Z,91.70
2022-12-11T04:13:36.864Z,91.70
2022-12-11T04:16:04.203Z,91.70
2022-12-11T04:18:47.420Z,91.90
2022-12-11T04:21:29.099Z,92.50
2022-12-11T04:24:10.751Z,92.70
2022-12-11T04:26:38.529Z,92.50
2022-12-11T04:29:06.227Z,92.20
2022-12-11T04:31:34.011Z,92.50
2022-12-11T04:34:03.016Z,92.40
2022-12-11T04:36:30.731Z,92.20
2022-12-11T04:38:58.668Z,92.00
2022-12-11T04:41:26.371Z,91.80
2022-12-11T04:43:54.048Z,92.40
2022-12-11T04:46:23.339Z,92.90
2022-12-11T04:48:57.117Z,92.80
2022-12-11T04:51:27.490Z,92.60
2022-12-11T04:53:55.915Z,92.40
2022-12-11T04:56:23.600Z,92.50
2022-12-11T04:58:51.314Z,92.60
2022-12-11T05:01:20.902Z,92.60
2022-12-11T05:03:49.387Z,92.50
2022-12-11T05:06:17.156Z,92.40
2022-12-11T05:08:46.464Z,92.10
2022-12-11T05:11:16.595Z,92.00
2022-12-11T05:13:45.436Z,92.20
2022-12-11T05:16:15.713Z,92.20
2022-12-11T05:18:43.711Z,92.20
2022-12-11T05:21:13.254Z,92.10
2022-12-11T05:23:41.419Z,92.10
2022-12-11T05:26:13.792Z,92.00
2022-12-11T05:28:41.638Z,91.90
2022-12-11T05:31:13.172Z,91.90
2022-12-11T05:33:41.531Z,91.90
2022-12-11T05:36:10.261Z,91.90
2022-12-11T05:38:37.915Z,92.10
2022-12-11T05:41:07.575Z,92.10
2022-12-11T05:43:37.688Z,92.10
2022-12-11T05:46:08.482Z,92.10
2022-12-11T05:48:36.982Z,92.00
2022-12-11T05:51:05.750Z,91.90
2022-12-11T05:53:33.687Z,92.00
2022-12-11T05:56:03.307Z,92.00
2022-12-11T05:58:31.439Z,91.90
2022-12-11T06:01:00.619Z,92.10
2022-12-11T06:03:28.452Z,92.10
2022-12-11T06:05:56.215Z,92.10
2022-12-11T06:08:24.200Z,92.20
2022-12-11T06:10:52.027Z,92.20
2022-12-11T06:13:19.742Z,92.30
2022-12-11T06:15:47.755Z,92.30
2022-12-11T06:18:16.935Z,92.40
2022-12-11T06:20:45.308Z,92.40
2022-12-11T06:23:13.083Z,92.40
2022-12-11T06:25:41.599Z,92.50
2022-12-11T06:28:09.396Z,92.40
2022-12-11T06:30:37.557Z,92.40
2022-12-11T06:33:07.315Z,92.50
2022-12-11T06:35:42.038Z,92.40
2022-12-11T06:38:10.383Z,92.80
2022-12-11T06:40:38.105Z,92.90
2022-12-11T06:43:05.870Z,92.90
2022-12-11T06:45:33.652Z,92.90
2022-12-11T06:48:01.387Z,92.50
2022-12-11T06:50:29.124Z,92.40
2022-12-11T06:52:58.444Z,92.30
2022-12-11T06:55:26.119Z,92.30
2022-12-11T06:57:53.891Z,92.30
2022-12-11T07:00:21.663Z,92.30
2022-12-11T07:02:51.173Z,92.40
2022-12-11T07:05:19.128Z,92.50
2022-12-11T07:07:46.998Z,92.30
2022-12-11T07:10:16.961Z,92.00
2022-12-11T07:12:44.676Z,92.00
2022-12-11T07:15:13.264Z,91.60
2022-12-11T07:17:41.387Z,91.90
2022-12-11T07:20:10.035Z,92.00
2022-12-11T07:22:43.092Z,92.20
2022-12-11T07:25:14.028Z,92.60
2022-12-11T07:27:43.433Z,93.20
2022-12-11T07:30:12.062Z,93.50
2022-12-11T07:32:40.064Z,93.90
2022-12-11T07:35:08.457Z,93.80
2022-12-11T07:37:36.503Z,93.60
2022-12-11T07:40:04.599Z,93.30
2022-12-11T07:42:32.379Z,92.90
2022-12-11T07:45:01.451Z,92.50
2022-12-11T07:47:29.123Z,92.20
2022-12-11T07:49:56.873Z,92.00
2022-12-11T07:52:24.573Z,91.90
2022-12-11T07:54:52.291Z,91.80
2022-12-11T07:57:19.975Z,91.50
2022-12-11T07:59:47.787Z,91.40
2022-12-11T08:02:16.847Z,91.40
2022-12-11T08:04:44.605Z,91.60
2022-12-11T08:07:12.589Z,91.80
2022-12-11T08:09:40.445Z,92.00
2022-12-11T08:12:08.183Z,92.20
2022-12-11T08:14:36.162Z,92.00
2022-12-11T08:17:03.879Z,91.80
2022-12-11T08:19:32.956Z,91.70
2022-12-11T08:22:00.653Z,91.50
2022-12-11T08:24:28.370Z,91.20
2022-12-11T08:26:56.126Z,91.20
2022-12-11T08:29:23.887Z,91.10
2022-12-11T08:31:51.617Z,90.80
2022-12-11T08:34:19.370Z,90.80
2022-12-11T08:36:48.504Z,90.80
2022-12-11T08:39:16.191Z,90.70
2022-12-11T08:41:43.878Z,90.70
2022-12-11T08:44:17.174Z,90.60
2022-12-11T08:46:45.264Z,90.30
2022-12-11T08:49:13.064Z,90.30
2022-12-11T08:51:40.822Z,89.90
2022-12-11T08:54:10.745Z,89.70
2022-12-11T08:56:38.574Z,89.80
2022-12-11T08:59:06.695Z,89.70
2022-12-11T09:01:34.522Z,89.70
2022-12-11T09:04:02.286Z,89.90
2022-12-11T09:06:31.481Z,89.90
2022-12-11T09:09:01.419Z,89.70
2022-12-11T09:11:32.640Z,89.50
2022-12-11T09:14:05.436Z,89.40
2022-12-11T09:16:37.565Z,88.90
2022-12-11T09:19:06.792Z,88.80
2022-12-11T09:21:34.854Z,88.70
2022-12-11T09:24:02.690Z,88.50
2022-12-11T09:26:31.962Z,88.00
2022-12-11T09:29:00.058Z,87.60
2022-12-11T09:31:29.902Z,87.30
2022-12-11T09:33:59.795Z,87.10
2022-12-11T09:36:28.567Z,86.70
2022-12-11T09:38:56.861Z,87.40
2022-12-11T09:41:35.920Z,87.70
2022-12-11T09:44:13.905Z,88.00
2022-12-11T09:46:42.606Z,87.60
2022-12-11T09:49:21.712Z,87.30
2022-12-11T09:52:02.959Z,86.80
2022-12-11T09:54:31.046Z,86.40
2022-12-11T09:57:06.015Z,86.10
2022-12-11T09:59:42.219Z,86.10
2022-12-11T10:02:27.298Z,86.20
2022-12-11T10:05:08.929Z,86.20
2022-12-11T10:07:42.758Z,86.90
2022-12-11T10:10:18.377Z,87.00
2022-12-11T10:12:55.909Z,86.60
2022-12-11T10:15:32.653Z,86.10
2022-12-11T10:18:04.966Z,86.00
2022-12-11T10:20:38.970Z,85.50
2022-12-11T10:23:08.826Z,85.00
2022-12-11T10:25:38.355Z,85.40
2022-12-11T10:28:14.022Z,85.10
2022-12-11T10:30:48.719Z,85.30
2022-12-11T10:33:22.562Z,84.90
2022-12-11T10:35:52.931Z,84.30
2022-12-11T10:38:28.014Z,84.30
2022-12-11T10:40:58.504Z,83.60
2022-12-11T10:43:36.939Z,83.80
2022-12-11T10:46:06.640Z,83.50
2022-12-11T10:48:34.727Z,83.50
2022-12-11T10:51:06.213Z,83.00
2022-12-11T10:53:35.714Z,83.80
2022-12-11T10:56:03.942Z,84.70
2022-12-11T10:58:34.012Z,84.90
2022-12-11T11:01:08.358Z,85.00
2022-12-11T11:03:42.211Z,84.10
2022-12-11T11:06:18.414Z,83.40
2022-12-11T11:08:48.355Z,83.00
2022-12-11T11:11:26.039Z,83.40
2022-12-11T11:14:05.874Z,82.10
2022-12-11T11:16:38.047Z,81.30
2022-12-11T11:19:06.626Z,81.50
2022-12-11T11:21:36.586Z,82.20
2022-12-11T11:24:04.906Z,82.70
2022-12-11T11:27:11.142Z,81.10
2022-12-11T11:29:29.192Z,80.60
2022-12-11T11:31:59.779Z,81.00
2022-12-11T11:34:30.724Z,80.50
2022-12-11T11:37:05.464Z,80.90
2022-12-11T11:39:38.224Z,81.10
2022-12-11T11:42:12.907Z,81.30
2022-12-11T11:44:47.922Z,82.00
2022-12-11T11:47:23.258Z,82.00
2022-12-11T11:50:00.951Z,82.30
2022-12-11T11:52:33.126Z,82.00
2022-12-11T11:55:10.296Z,81.70
2022-12-11T11:57:43.296Z,82.00
2022-12-11T12:00:20.592Z,81.60
2022-12-11T12:02:54.231Z,82.60
2022-12-11T12:05:27.534Z,82.60
2022-12-11T12:08:06.578Z,83.20
2022-12-11T12:10:45.022Z,84.10
2022-12-11T12:13:48.557Z,84.30
2022-12-11T12:16:51.553Z,84.20
2022-12-11T12:19:20.594Z,83.40
2022-12-11T12:21:51.843Z,83.30
2022-12-11T12:24:30.942Z,82.40
2022-12-11T12:27:03.046Z,81.40
2022-12-11T12:29:44.850Z,81.40
2022-12-11T12:32:22.398Z,81.70
2022-12-11T12:35:04.103Z,82.60
2022-12-11T12:37:46.981Z,82.10
2022-12-11T12:40:24.655Z,82.10
2022-12-11T12:43:01.105Z,81.90
2022-12-11T12:45:35.912Z,81.90
2022-12-11T12:48:03.618Z,82.10
2022-12-11T12:50:38.518Z,82.20
2022-12-11T12:53:07.628Z,82.50
2022-12-11T12:55:36.647Z,82.40
2022-12-11T12:58:06.700Z,82.00
2022-12-11T13:00:36.671Z,82.30
2022-12-11T13:03:14.973Z,82.40
2022-12-11T13:05:46.654Z,82.60
2022-12-11T13:08:25.055Z,82.20
2022-12-11T13:11:01.910Z,82.40
2022-12-11T13:13:36.956Z,82.80
2022-12-11T13:16:28.653Z,83.40
2022-12-11T13:18:56.674Z,83.20
2022-12-11T13:21:31.705Z,83.60
2022-12-11T13:24:16.243Z,83.80
2022-12-11T13:26:44.282Z,84.00
2022-12-11T13:29:31.529Z,84.30
2022-12-11T13:32:00.996Z,84.40
2022-12-11T13:34:33.151Z,84.40
2022-12-11T13:37:03.796Z,84.30
2022-12-11T13:39:33.864Z,84.40
2022-12-11T13:42:05.798Z,84.60
2022-12-11T13:44:38.842Z,84.40
2022-12-11T13:47:13.423Z,84.40
2022-12-11T13:49:45.305Z,84.60
2022-12-11T13:52:19.493Z,84.70
2022-12-11T13:54:50.310Z,85.10
2022-12-11T13:57:20.892Z,85.50
2022-12-11T13:59:52.949Z,85.70
2022-12-11T14:02:24.748Z,85.60
2022-12-11T14:04:56.659Z,85.70
2022-12-11T14:07:30.366Z,85.80
2022-12-11T14:10:07.073Z,86.00
2022-12-11T14:12:36.586Z,86.10
2022-12-11T14:15:05.614Z,86.20
2022-12-11T14:17:35.398Z,86.30
2022-12-11T14:20:07.587Z,86.10
2022-12-11T14:22:36.932Z,86.20
2022-12-11T14:25:21.637Z,86.00
2022-12-11T14:27:52.158Z,86.30
2022-12-11T14:30:24.826Z,86.40
2022-12-11T14:32:55.570Z,86.70
2022-12-11T14:35:27.258Z,86.80
2022-12-11T14:37:58.154Z,86.80
2022-12-11T14:40:30.828Z,86.70
2022-12-11T14:43:02.113Z,86.70
2022-12-11T14:45:35.130Z,86.60
2022-12-11T14:48:11.006Z,86.70
2022-12-11T14:50:43.475Z,87.00
2022-12-11T14:53:19.210Z,86.90
2022-12-11T14:55:49.262Z,87.00
2022-12-11T14:58:21.852Z,87.10
2022-12-11T15:00:58.525Z,87.20
2022-12-11T15:03:33.408Z,87.20
2022-12-11T15:06:02.508Z,87.50
2022-12-11T15:08:33.337Z,87.80
2022-12-11T15:11:05.583Z,87.90
2022-12-11T15:13:34.370Z,87.90
2022-12-11T15:16:03.212Z,88.20
2022-12-11T15:18:34.588Z,88.00
2022-12-11T15:21:06.883Z,87.90
2022-12-11T15:23:47.989Z,87.90
2022-12-11T15:26:15.888Z,87.90
2022-12-11T15:28:43.644Z,87.80
2022-12-11T15:31:26.254Z,87.90
2022-12-11T15:33:54.778Z,87.70
2022-12-11T15:36:27.136Z,87.80
2022-12-11T15:38:56.148Z,87.90
2022-12-11T15:41:24.849Z,87.70
2022-12-11T15:43:58.629Z,87.60
2022-12-11T15:46:27.793Z,87.30
2022-12-11T15:48:56.900Z,87.50
2022-12-11T15:51:27.827Z,87.70
2022-12-11T15:53:56.893Z,87.90
2022-12-11T15:56:24.604Z,87.80
2022-12-11T15:58:52.401Z,87.70
2022-12-11T16:01:20.778Z,87.60
2022-12-11T16:03:50.218Z,87.70
2022-12-11T16:06:17.975Z,87.50
2022-12-11T16:08:46.547Z,87.40
2022-12-11T16:11:15.689Z,87.60
2022-12-11T16:13:43.412Z,87.60
2022-12-11T16:16:11.301Z,87.60
2022-12-11T16:18:39.467Z,87.60
2022-12-11T16:21:08.182Z,87.70
2022-12-11T16:23:35.824Z,87.70
2022-12-11T16:26:09.867Z,87.90
2022-12-11T16:28:39.706Z,88.10
2022-12-11T16:31:11.749Z,88.60
2022-12-11T16:33:39.618Z,88.50
2022-12-11T16:36:13.914Z,88.60
2022-12-11T16:38:41.652Z,88.60
2022-12-11T16:41:09.306Z,88.60
2022-12-11T16:43:37.022Z,88.60
2022-12-11T16:46:06.327Z,88.70
2022-12-11T16:48:34.402Z,88.80
2022-12-11T16:51:02.144Z,88.70
2022-12-11T16:53:29.842Z,88.70
2022-12-11T16:55:57.507Z,88.80
2022-12-11T16:58:25.171Z,89.00
2022-12-11T17:00:52.898Z,88.90
2022-12-11T17:03:21.874Z,89.10
2022-12-11T17:05:49.542Z,89.20
2022-12-11T17:08:17.310Z,89.20
2022-12-11T17:10:45.006Z,89.10
2022-12-11T17:13:12.757Z,89.00
2022-12-11T17:15:42.053Z,88.90
2022-12-11T17:18:10.028Z,88.70
2022-12-11T17:20:42.542Z,88.80
2022-12-11T17:23:10.825Z,88.90
2022-12-11T17:25:40.924Z,88.90
2022-12-11T17:28:09.087Z,88.90
2022-12-11T17:30:40.957Z,89.00
2022-12-11T17:33:08.677Z,89.30
2022-12-11T17:35:36.411Z,89.40
2022-12-11T17:38:05.662Z,89.30
2022-12-11T17:40:33.601Z,89.30
2022-12-11T17:43:01.326Z,89.30
2022-12-11T17:45:29.022Z,89.20
2022-12-11T17:47:56.680Z,89.10
2022-12-11T17:50:24.446Z,89.30
2022-12-11T17:52:52.400Z,89.30
2022-12-11T17:55:21.465Z,90.30
2022-12-11T17:57:49.202Z,91.40
2022-12-11T18:00:17.187Z,91.50
2022-12-11T18:02:44.946Z,91.40
2022-12-11T18:05:13.646Z,91.50
2022-12-11T18:07:41.606Z,91.30
2022-12-11T18:10:09.725Z,91.40
2022-12-11T18:12:38.751Z,91.50
2022-12-11T18:15:07.084Z,91.50
2022-12-11T18:17:35.310Z,91.60
2022-12-11T18:20:03.234Z,91.50
2022-12-11T18:22:31.656Z,91.50
2022-12-11T18:24:59.330Z,91.40
2022-12-11T18:27:27.607Z,91.70
2022-12-11T18:29:56.926Z,91.90
2022-12-11T18:32:24.698Z,91.90
2022-12-11T18:34:52.391Z,92.20
2022-12-11T18:37:24.712Z,92.40
2022-12-11T18:39:55.369Z,92.50
2022-12-11T18:42:38.462Z,92.40
2022-12-11T18:45:08.233Z,92.60
2022-12-11T18:47:37.215Z,92.90
2022-12-11T18:50:08.031Z,92.80
2022-12-11T18:52:36.290Z,92.80
2022-12-11T18:55:05.414Z,92.80
2022-12-11T18:57:33.219Z,92.90
2022-12-11T19:00:07.018Z,93.00
2022-12-11T19:02:36.803Z,93.20
2022-12-11T19:05:05.240Z,93.10
2022-12-11T19:07:32.969Z,93.20
2022-12-11T19:10:00.818Z,93.20
2022-12-11T19:12:28.718Z,93.20
2022-12-11T19:14:56.434Z,93.20
2022-12-11T19:17:24.091Z,93.10
2022-12-11T19:19:53.175Z,93.10
2022-12-11T19:22:20.907Z,93.20
2022-12-11T19:24:48.658Z,93.30
2022-12-11T19:27:16.412Z,93.30
2022-12-11T19:29:44.151Z,93.30
2022-12-11T19:32:12.047Z,93.50
2022-12-11T19:34:39.906Z,93.50
2022-12-11T19:37:09.218Z,93.30
2022-12-11T19:39:39.487Z,93.30
2022-12-11T19:42:07.371Z,93.20
2022-12-11T19:44:35.517Z,93.50
2022-12-11T19:47:03.310Z,93.50
2022-12-11T19:49:31.325Z,93.50
2022-12-11T19:51:58.990Z,93.40
2022-12-11T19:54:28.271Z,93.40
2022-12-11T19:56:56.035Z,93.40
2022-12-11T19:59:23.691Z,93.40
2022-12-11T20:01:51.516Z,93.20
2022-12-11T20:04:19.863Z,93.00
2022-12-11T20:06:48.188Z,92.90
2022-12-11T20:09:16.359Z,92.70
2022-12-11T20:11:47.203Z,92.40
2022-12-11T20:14:20.858Z,92.50
2022-12-11T20:19:36.943Z,92.30
2022-12-11T20:22:04.836Z,92.00
2022-12-11T20:24:32.889Z,91.90
2022-12-11T20:27:04.371Z,92.00
2022-12-11T20:29:32.375Z,91.80
2022-12-11T20:32:00.395Z,92.60
2022-12-11T20:34:28.470Z,92.70
2022-12-11T20:36:56.260Z,92.50
2022-12-11T20:39:24.334Z,92.80
2022-12-11T20:41:52.093Z,92.80
2022-12-11T20:44:21.411Z,92.60
2022-12-11T20:46:49.246Z,92.60
2022-12-11T20:49:17.114Z,92.40
2022-12-11T20:51:44.866Z,92.10
2022-12-11T20:54:13.132Z,91.90
2022-12-11T20:56:40.918Z,92.00
2022-12-11T20:59:08.656Z,92.10
2022-12-11T21:01:37.786Z,92.00
2022-12-11T21:04:05.607Z,92.00
2022-12-11T21:06:35.423Z,92.00
2022-12-11T21:09:08.982Z,91.80
2022-12-11T21:11:37.021Z,91.40
2022-12-11T21:14:05.013Z,91.40
2022-12-11T21:16:33.289Z,91.10
2022-12-11T21:19:02.646Z,91.10
2022-12-11T21:21:32.371Z,90.90
2022-12-11T21:24:00.311Z,90.60
2022-12-11T21:26:28.014Z,89.70
2022-12-11T21:28:55.847Z,90.40
2022-12-11T21:31:23.578Z,90.50
2022-12-11T21:33:51.785Z,89.90
2022-12-11T21:36:20.763Z,89.80
2022-12-11T21:38:48.472Z,89.90
2022-12-11T21:41:18.537Z,89.80
2022-12-11T21:44:47.057Z,90.00
2022-12-11T21:46:35.564Z,90.00
2022-12-11T21:49:03.385Z,89.80
2022-12-11T21:51:37.201Z,89.50
2022-12-11T21:54:10.141Z,89.30
2022-12-11T21:56:38.003Z,88.50
2022-12-11T21:59:06.533Z,88.30
2022-12-11T22:01:38.130Z,88.80
2022-12-11T22:04:06.787Z,89.20
2022-12-11T22:06:36.255Z,88.10
2022-12-11T22:09:04.989Z,88.10
2022-12-11T22:11:35.297Z,88.00
2022-12-11T22:14:03.851Z,88.10
2022-12-11T22:16:31.732Z,88.00
2022-12-11T22:18:59.485Z,87.50
2022-12-11T22:21:27.270Z,88.20
2022-12-11T22:23:56.725Z,88.00
2022-12-11T22:26:26.452Z,88.00
2022-12-11T22:28:54.882Z,87.50
2022-12-11T22:31:25.178Z,87.80
2022-12-11T22:33:54.747Z,87.70
2022-12-11T22:36:23.633Z,87.00
2022-12-11T22:38:51.486Z,86.70
2022-12-11T22:41:24.671Z,86.70
2022-12-11T22:43:52.506Z,86.30
2022-12-11T22:46:23.240Z,86.50
2022-12-11T22:48:51.545Z,87.00
2022-12-11T22:51:19.814Z,87.10
2022-12-11T22:53:47.942Z,86.90
2022-12-11T22:56:16.056Z,86.60
2022-12-11T22:58:45.144Z,86.50
2022-12-11T23:01:14.922Z,86.90
2022-12-11T23:03:42.704Z,87.00
2022-12-11T23:06:12.739Z,87.30
2022-12-11T23:08:41.831Z,86.90
2022-12-11T23:11:12.639Z,87.30
2022-12-11T23:13:40.462Z,87.70
2022-12-11T23:16:10.652Z,88.00
2022-12-11T23:18:39.350Z,88.00
2022-12-11T23:21:07.179Z,87.70
2022-12-11T23:23:34.889Z,87.90
2022-12-11T23:26:03.146Z,87.70
2022-12-11T23:28:30.856Z,87.50
2022-12-11T23:30:58.802Z,87.90
2022-12-11T23:33:28.208Z,87.70
2022-12-11T23:35:56.038Z,87.20
2022-12-11T23:38:23.768Z,87.30
2022-12-11T23:40:52.934Z,87.20
2022-12-11T23:43:20.748Z,86.90
2022-12-11T23:45:48.866Z,86.20
2022-12-11T23:48:16.654Z,86.30
2022-12-11T23:50:46.146Z,86.20
2022-12-11T23:53:14.139Z,85.90
2022-12-11T23:55:44.326Z,86.50
2022-12-11T23:58:12.564Z,86.70
